sensor_id;sensor_type;location;lat;lon;timestamp;P1;durP1;ratioP1;P2;durP2;ratioP2
29776;SDS011;16677;52.224;7.484;2022-11-24T00:01:45;22.63;;;14.33;;
29776;SDS011;16677;52.224;7.484;2022-11-24T00:04:12;20.57;;;13.00;;
29776;SDS011;16677;52.224;7.484;2022-11-24T00:06:39;23.57;;;11.83;;
29776;SDS011;16677;52.224;7.484;2022-11-24T00:09:06;22.53;;;12.23;;
29776;SDS011;16677;52.224;7.484;2022-11-24T00:11:40;19.00;;;11.07;;
29776;SDS011;16677;52.224;7.484;2022-11-24T00:14:11;18.87;;;10.83;;
29776;SDS011;16677;52.224;7.484;2022-11-24T00:16:39;20.30;;;10.20;;
29776;SDS011;16677;52.224;7.484;2022-11-24T00:19:06;25.43;;;10.03;;
29776;SDS011;16677;52.224;7.484;2022-11-24T00:21:44;23.60;;;9.43;;
29776;SDS011;16677;52.224;7.484;2022-11-24T00:24:11;23.33;;;8.13;;
29776;SDS011;16677;52.224;7.484;2022-11-24T00:26:39;20.23;;;7.97;;
29776;SDS011;16677;52.224;7.484;2022-11-24T00:29:06;25.97;;;7.37;;
29776;SDS011;16677;52.224;7.484;2022-11-24T00:31:42;21.73;;;7.03;;
29776;SDS011;16677;52.224;7.484;2022-11-24T00:34:10;17.27;;;6.37;;
29776;SDS011;16677;52.224;7.484;2022-11-24T00:36:39;18.90;;;6.20;;
29776;SDS011;16677;52.224;7.484;2022-11-24T00:39:07;16.97;;;6.33;;
29776;SDS011;16677;52.224;7.484;2022-11-24T00:41:37;19.57;;;5.63;;
29776;SDS011;16677;52.224;7.484;2022-11-24T00:44:04;17.70;;;5.70;;
29776;SDS011;16677;52.224;7.484;2022-11-24T00:46:31;20.17;;;5.10;;
29776;SDS011;16677;52.224;7.484;2022-11-24T00:48:59;21.53;;;5.23;;
29776;SDS011;16677;52.224;7.484;2022-11-24T00:51:27;21.63;;;5.30;;
29776;SDS011;16677;52.224;7.484;2022-11-24T00:53:56;22.43;;;5.40;;
29776;SDS011;16677;52.224;7.484;2022-11-24T00:56:24;22.37;;;5.33;;
29776;SDS011;16677;52.224;7.484;2022-11-24T00:58:52;12.27;;;4.63;;
29776;SDS011;16677;52.224;7.484;2022-11-24T01:01:21;22.87;;;5.40;;
29776;SDS011;16677;52.224;7.484;2022-11-24T01:03:58;20.87;;;5.10;;
29776;SDS011;16677;52.224;7.484;2022-11-24T01:06:31;15.83;;;5.40;;
29776;SDS011;16677;52.224;7.484;2022-11-24T01:09:02;20.27;;;5.10;;
29776;SDS011;16677;52.224;7.484;2022-11-24T01:11:31;26.20;;;5.00;;
29776;SDS011;16677;52.224;7.484;2022-11-24T01:14:21;15.60;;;4.87;;
29776;SDS011;16677;52.224;7.484;2022-11-24T01:16:54;19.03;;;5.00;;
29776;SDS011;16677;52.224;7.484;2022-11-24T01:19:21;18.93;;;4.93;;
29776;SDS011;16677;52.224;7.484;2022-11-24T01:21:49;16.80;;;4.97;;
29776;SDS011;16677;52.224;7.484;2022-11-24T01:24:32;20.30;;;4.67;;
29776;SDS011;16677;52.224;7.484;2022-11-24T01:27:08;22.27;;;5.40;;
29776;SDS011;16677;52.224;7.484;2022-11-24T01:29:35;14.30;;;4.50;;
29776;SDS011;16677;52.224;7.484;2022-11-24T01:32:09;21.33;;;4.23;;
29776;SDS011;16677;52.224;7.484;2022-11-24T01:34:39;23.73;;;5.57;;
29776;SDS011;16677;52.224;7.484;2022-11-24T01:37:09;20.13;;;4.50;;
29776;SDS011;16677;52.224;7.484;2022-11-24T01:39:35;19.07;;;4.33;;
29776;SDS011;16677;52.224;7.484;2022-11-24T01:42:02;23.10;;;5.63;;
29776;SDS011;16677;52.224;7.484;2022-11-24T01:44:29;18.10;;;4.50;;
29776;SDS011;16677;52.224;7.484;2022-11-24T01:50:20;25.60;;;5.17;;
29776;SDS011;16677;52.224;7.484;2022-11-24T01:53:11;23.20;;;4.53;;
29776;SDS011;16677;52.224;7.484;2022-11-24T01:56:35;23.17;;;5.40;;
29776;SDS011;16677;52.224;7.484;2022-11-24T01:59:06;28.13;;;5.00;;
29776;SDS011;16677;52.224;7.484;2022-11-24T02:02:05;21.87;;;5.17;;
29776;SDS011;16677;52.224;7.484;2022-11-24T02:04:33;18.20;;;4.77;;
29776;SDS011;16677;52.224;7.484;2022-11-24T02:07:02;22.23;;;4.90;;
29776;SDS011;16677;52.224;7.484;2022-11-24T02:09:39;21.37;;;4.83;;
29776;SDS011;16677;52.224;7.484;2022-11-24T02:12:18;21.67;;;5.93;;
29776;SDS011;16677;52.224;7.484;2022-11-24T02:14:49;19.13;;;4.90;;
29776;SDS011;16677;52.224;7.484;2022-11-24T02:17:16;19.10;;;3.90;;
29776;SDS011;16677;52.224;7.484;2022-11-24T02:19:57;16.87;;;4.40;;
29776;SDS011;16677;52.224;7.484;2022-11-24T02:22:41;22.83;;;4.60;;
29776;SDS011;16677;52.224;7.484;2022-11-24T02:25:16;27.73;;;5.27;;
29776;SDS011;16677;52.224;7.484;2022-11-24T02:28:04;17.20;;;5.20;;
29776;SDS011;16677;52.224;7.484;2022-11-24T02:30:35;13.90;;;4.80;;
29776;SDS011;16677;52.224;7.484;2022-11-24T02:33:11;22.03;;;5.20;;
29776;SDS011;16677;52.224;7.484;2022-11-24T02:35:39;19.63;;;4.90;;
29776;SDS011;16677;52.224;7.484;2022-11-24T02:38:05;19.50;;;5.13;;
29776;SDS011;16677;52.224;7.484;2022-11-24T02:40:35;16.37;;;4.87;;
29776;SDS011;16677;52.224;7.484;2022-11-24T02:43:06;15.20;;;4.37;;
29776;SDS011;16677;52.224;7.484;2022-11-24T02:45:53;21.97;;;5.23;;
29776;SDS011;16677;52.224;7.484;2022-11-24T02:48:41;20.60;;;4.67;;
29776;SDS011;16677;52.224;7.484;2022-11-24T02:51:07;22.57;;;5.37;;
29776;SDS011;16677;52.224;7.484;2022-11-24T02:53:35;19.63;;;5.40;;
29776;SDS011;16677;52.224;7.484;2022-11-24T02:56:02;22.43;;;5.70;;
29776;SDS011;16677;52.224;7.484;2022-11-24T02:58:30;20.90;;;5.07;;
29776;SDS011;16677;52.224;7.484;2022-11-24T03:00:57;22.70;;;5.17;;
29776;SDS011;16677;52.224;7.484;2022-11-24T03:03:25;20.27;;;5.33;;
29776;SDS011;16677;52.224;7.484;2022-11-24T03:05:52;19.57;;;4.70;;
29776;SDS011;16677;52.224;7.484;2022-11-24T03:08:19;20.37;;;5.03;;
29776;SDS011;16677;52.224;7.484;2022-11-24T03:10:46;22.70;;;4.40;;
29776;SDS011;16677;52.224;7.484;2022-11-24T03:13:14;23.27;;;5.07;;
29776;SDS011;16677;52.224;7.484;2022-11-24T03:15:41;21.10;;;5.37;;
29776;SDS011;16677;52.224;7.484;2022-11-24T03:18:08;20.90;;;5.33;;
29776;SDS011;16677;52.224;7.484;2022-11-24T03:20:38;15.97;;;4.50;;
29776;SDS011;16677;52.224;7.484;2022-11-24T03:23:04;24.20;;;5.20;;
29776;SDS011;16677;52.224;7.484;2022-11-24T03:25:31;16.17;;;4.40;;
29776;SDS011;16677;52.224;7.484;2022-11-24T03:28:01;19.47;;;4.53;;
29776;SDS011;16677;52.224;7.484;2022-11-24T03:30:28;18.77;;;4.70;;
29776;SDS011;16677;52.224;7.484;2022-11-24T03:32:55;17.03;;;4.50;;
29776;SDS011;16677;52.224;7.484;2022-11-24T03:35:23;20.37;;;4.97;;
29776;SDS011;16677;52.224;7.484;2022-11-24T03:37:51;16.73;;;4.73;;
29776;SDS011;16677;52.224;7.484;2022-11-24T03:40:18;17.87;;;4.97;;
29776;SDS011;16677;52.224;7.484;2022-11-24T03:42:45;17.77;;;4.47;;
29776;SDS011;16677;52.224;7.484;2022-11-24T03:45:12;24.70;;;5.40;;
29776;SDS011;16677;52.224;7.484;2022-11-24T03:48:00;24.63;;;5.07;;
29776;SDS011;16677;52.224;7.484;2022-11-24T03:50:27;20.90;;;4.37;;
29776;SDS011;16677;52.224;7.484;2022-11-24T03:52:54;19.73;;;4.50;;
29776;SDS011;16677;52.224;7.484;2022-11-24T03:55:20;22.13;;;4.47;;
29776;SDS011;16677;52.224;7.484;2022-11-24T03:57:47;17.00;;;4.33;;
29776;SDS011;16677;52.224;7.484;2022-11-24T04:00:14;19.70;;;4.37;;
29776;SDS011;16677;52.224;7.484;2022-11-24T04:02:42;14.27;;;4.03;;
29776;SDS011;16677;52.224;7.484;2022-11-24T04:05:09;21.30;;;4.87;;
29776;SDS011;16677;52.224;7.484;2022-11-24T04:07:36;21.13;;;4.40;;
29776;SDS011;16677;52.224;7.484;2022-11-24T04:10:03;17.63;;;4.83;;
29776;SDS011;16677;52.224;7.484;2022-11-24T04:12:31;20.43;;;4.97;;
29776;SDS011;16677;52.224;7.484;2022-11-24T04:15:10;15.63;;;4.53;;
29776;SDS011;16677;52.224;7.484;2022-11-24T04:17:39;17.43;;;4.30;;
29776;SDS011;16677;52.224;7.484;2022-11-24T04:20:07;18.77;;;5.23;;
29776;SDS011;16677;52.224;7.484;2022-11-24T04:22:38;23.33;;;5.20;;
29776;SDS011;16677;52.224;7.484;2022-11-24T04:25:05;15.30;;;4.60;;
29776;SDS011;16677;52.224;7.484;2022-11-24T04:27:33;21.27;;;5.43;;
29776;SDS011;16677;52.224;7.484;2022-11-24T04:30:02;17.57;;;4.30;;
29776;SDS011;16677;52.224;7.484;2022-11-24T04:32:33;16.43;;;4.60;;
29776;SDS011;16677;52.224;7.484;2022-11-24T04:35:00;13.80;;;4.53;;
29776;SDS011;16677;52.224;7.484;2022-11-24T04:37:27;24.73;;;4.90;;
29776;SDS011;16677;52.224;7.484;2022-11-24T04:39:54;24.10;;;5.63;;
29776;SDS011;16677;52.224;7.484;2022-11-24T04:42:21;20.37;;;4.30;;
29776;SDS011;16677;52.224;7.484;2022-11-24T04:44:48;23.60;;;5.40;;
29776;SDS011;16677;52.224;7.484;2022-11-24T04:47:22;21.43;;;4.87;;
29776;SDS011;16677;52.224;7.484;2022-11-24T04:49:50;18.10;;;4.93;;
29776;SDS011;16677;52.224;7.484;2022-11-24T04:52:17;22.10;;;5.10;;
29776;SDS011;16677;52.224;7.484;2022-11-24T04:54:46;22.50;;;5.47;;
29776;SDS011;16677;52.224;7.484;2022-11-24T04:57:15;17.80;;;5.57;;
29776;SDS011;16677;52.224;7.484;2022-11-24T04:59:42;25.03;;;5.37;;
29776;SDS011;16677;52.224;7.484;2022-11-24T05:02:09;22.10;;;5.57;;
29776;SDS011;16677;52.224;7.484;2022-11-24T05:04:36;18.87;;;6.40;;
29776;SDS011;16677;52.224;7.484;2022-11-24T05:07:04;25.53;;;7.03;;
29776;SDS011;16677;52.224;7.484;2022-11-24T05:09:31;24.27;;;8.27;;
29776;SDS011;16677;52.224;7.484;2022-11-24T05:12:18;22.17;;;6.73;;
29776;SDS011;16677;52.224;7.484;2022-11-24T05:14:45;25.43;;;7.53;;
29776;SDS011;16677;52.224;7.484;2022-11-24T05:17:12;28.90;;;6.20;;
29776;SDS011;16677;52.224;7.484;2022-11-24T05:19:39;20.23;;;5.93;;
29776;SDS011;16677;52.224;7.484;2022-11-24T05:22:06;29.37;;;7.67;;
29776;SDS011;16677;52.224;7.484;2022-11-24T05:24:33;21.53;;;6.80;;
29776;SDS011;16677;52.224;7.484;2022-11-24T05:27:01;20.10;;;5.43;;
29776;SDS011;16677;52.224;7.484;2022-11-24T05:29:28;17.07;;;5.20;;
29776;SDS011;16677;52.224;7.484;2022-11-24T05:31:55;19.50;;;5.70;;
29776;SDS011;16677;52.224;7.484;2022-11-24T05:34:21;21.60;;;6.90;;
29776;SDS011;16677;52.224;7.484;2022-11-24T05:36:49;25.47;;;5.70;;
29776;SDS011;16677;52.224;7.484;2022-11-24T05:39:19;20.37;;;5.37;;
29776;SDS011;16677;52.224;7.484;2022-11-24T05:41:48;16.63;;;5.60;;
29776;SDS011;16677;52.224;7.484;2022-11-24T05:44:14;24.70;;;5.30;;
29776;SDS011;16677;52.224;7.484;2022-11-24T05:46:41;23.40;;;5.30;;
29776;SDS011;16677;52.224;7.484;2022-11-24T05:49:08;24.10;;;5.63;;
29776;SDS011;16677;52.224;7.484;2022-11-24T05:51:38;27.73;;;6.23;;
29776;SDS011;16677;52.224;7.484;2022-11-24T05:54:05;22.10;;;6.30;;
29776;SDS011;16677;52.224;7.484;2022-11-24T05:56:32;22.63;;;5.53;;
29776;SDS011;16677;52.224;7.484;2022-11-24T05:58:59;29.03;;;6.07;;
29776;SDS011;16677;52.224;7.484;2022-11-24T06:01:33;27.77;;;5.53;;
29776;SDS011;16677;52.224;7.484;2022-11-24T06:04:00;23.07;;;6.50;;
29776;SDS011;16677;52.224;7.484;2022-11-24T06:06:27;20.77;;;5.83;;
29776;SDS011;16677;52.224;7.484;2022-11-24T06:08:54;24.43;;;5.43;;
29776;SDS011;16677;52.224;7.484;2022-11-24T06:11:21;26.67;;;5.83;;
29776;SDS011;16677;52.224;7.484;2022-11-24T06:13:48;26.93;;;5.87;;
29776;SDS011;16677;52.224;7.484;2022-11-24T06:16:25;25.53;;;5.63;;
29776;SDS011;16677;52.224;7.484;2022-11-24T06:18:52;21.13;;;5.20;;
29776;SDS011;16677;52.224;7.484;2022-11-24T06:21:19;30.40;;;5.20;;
29776;SDS011;16677;52.224;7.484;2022-11-24T06:23:46;27.47;;;5.60;;
29776;SDS011;16677;52.224;7.484;2022-11-24T06:26:14;22.13;;;5.87;;
29776;SDS011;16677;52.224;7.484;2022-11-24T06:28:43;26.40;;;6.87;;
29776;SDS011;16677;52.224;7.484;2022-11-24T06:31:19;26.80;;;6.33;;
29776;SDS011;16677;52.224;7.484;2022-11-24T06:33:46;29.03;;;7.97;;
29776;SDS011;16677;52.224;7.484;2022-11-24T06:36:16;35.83;;;9.33;;
29776;SDS011;16677;52.224;7.484;2022-11-24T06:38:43;29.50;;;9.90;;
29776;SDS011;16677;52.224;7.484;2022-11-24T06:41:11;23.13;;;10.77;;
29776;SDS011;16677;52.224;7.484;2022-11-24T06:43:39;25.27;;;8.27;;
29776;SDS011;16677;52.224;7.484;2022-11-24T06:46:06;24.73;;;6.90;;
29776;SDS011;16677;52.224;7.484;2022-11-24T06:48:34;22.07;;;6.20;;
29776;SDS011;16677;52.224;7.484;2022-11-24T06:51:02;26.67;;;6.37;;
29776;SDS011;16677;52.224;7.484;2022-11-24T06:53:34;20.87;;;5.53;;
29776;SDS011;16677;52.224;7.484;2022-11-24T06:56:07;16.50;;;5.40;;
29776;SDS011;16677;52.224;7.484;2022-11-24T06:58:43;26.40;;;6.03;;
29776;SDS011;16677;52.224;7.484;2022-11-24T07:01:15;27.43;;;7.07;;
29776;SDS011;16677;52.224;7.484;2022-11-24T07:03:43;21.67;;;6.40;;
29776;SDS011;16677;52.224;7.484;2022-11-24T07:06:11;29.17;;;6.77;;
29776;SDS011;16677;52.224;7.484;2022-11-24T07:08:38;22.17;;;5.50;;
29776;SDS011;16677;52.224;7.484;2022-11-24T07:11:07;23.50;;;6.00;;
29776;SDS011;16677;52.224;7.484;2022-11-24T07:13:37;25.37;;;6.33;;
29776;SDS011;16677;52.224;7.484;2022-11-24T07:16:11;29.20;;;5.83;;
29776;SDS011;16677;52.224;7.484;2022-11-24T07:18:46;23.13;;;5.50;;
29776;SDS011;16677;52.224;7.484;2022-11-24T07:21:14;23.20;;;6.10;;
29776;SDS011;16677;52.224;7.484;2022-11-24T07:23:41;23.97;;;5.73;;
29776;SDS011;16677;52.224;7.484;2022-11-24T07:26:12;15.43;;;5.03;;
29776;SDS011;16677;52.224;7.484;2022-11-24T07:28:40;17.73;;;4.73;;
29776;SDS011;16677;52.224;7.484;2022-11-24T07:31:11;18.90;;;5.07;;
29776;SDS011;16677;52.224;7.484;2022-11-24T07:33:54;16.30;;;4.63;;
29776;SDS011;16677;52.224;7.484;2022-11-24T07:36:21;19.53;;;4.93;;
29776;SDS011;16677;52.224;7.484;2022-11-24T07:38:48;23.87;;;4.90;;
29776;SDS011;16677;52.224;7.484;2022-11-24T07:41:23;23.40;;;4.83;;
29776;SDS011;16677;52.224;7.484;2022-11-24T07:43:50;18.87;;;4.80;;
29776;SDS011;16677;52.224;7.484;2022-11-24T07:46:18;17.27;;;5.30;;
29776;SDS011;16677;52.224;7.484;2022-11-24T07:48:46;14.20;;;4.20;;
29776;SDS011;16677;52.224;7.484;2022-11-24T07:51:13;15.07;;;4.90;;
29776;SDS011;16677;52.224;7.484;2022-11-24T07:53:41;14.47;;;3.93;;
29776;SDS011;16677;52.224;7.484;2022-11-24T07:56:08;10.67;;;3.10;;
29776;SDS011;16677;52.224;7.484;2022-11-24T07:58:36;11.93;;;3.23;;
29776;SDS011;16677;52.224;7.484;2022-11-24T08:01:13;10.40;;;3.10;;
29776;SDS011;16677;52.224;7.484;2022-11-24T08:03:42;10.97;;;3.60;;
29776;SDS011;16677;52.224;7.484;2022-11-24T08:06:10;11.40;;;3.60;;
29776;SDS011;16677;52.224;7.484;2022-11-24T08:08:57;10.57;;;3.50;;
29776;SDS011;16677;52.224;7.484;2022-11-24T08:11:40;11.67;;;3.33;;
29776;SDS011;16677;52.224;7.484;2022-11-24T08:14:07;13.67;;;3.73;;
29776;SDS011;16677;52.224;7.484;2022-11-24T08:16:34;9.90;;;4.00;;
29776;SDS011;16677;52.224;7.484;2022-11-24T08:19:01;11.20;;;3.40;;
29776;SDS011;16677;52.224;7.484;2022-11-24T08:21:31;10.73;;;3.67;;
29776;SDS011;16677;52.224;7.484;2022-11-24T08:23:59;16.10;;;4.17;;
29776;SDS011;16677;52.224;7.484;2022-11-24T08:26:25;9.33;;;3.07;;
29776;SDS011;16677;52.224;7.484;2022-11-24T08:28:54;8.70;;;3.70;;
29776;SDS011;16677;52.224;7.484;2022-11-24T08:31:23;13.40;;;4.63;;
29776;SDS011;16677;52.224;7.484;2022-11-24T08:33:54;11.53;;;4.07;;
29776;SDS011;16677;52.224;7.484;2022-11-24T08:36:21;8.90;;;3.87;;
29776;SDS011;16677;52.224;7.484;2022-11-24T08:38:52;14.43;;;4.17;;
29776;SDS011;16677;52.224;7.484;2022-11-24T08:41:23;13.17;;;5.00;;
29776;SDS011;16677;52.224;7.484;2022-11-24T08:43:51;8.80;;;3.80;;
29776;SDS011;16677;52.224;7.484;2022-11-24T08:46:19;14.77;;;4.37;;
29776;SDS011;16677;52.224;7.484;2022-11-24T08:48:47;19.20;;;4.73;;
29776;SDS011;16677;52.224;7.484;2022-11-24T08:51:17;11.13;;;4.80;;
29776;SDS011;16677;52.224;7.484;2022-11-24T08:53:46;13.33;;;4.40;;
29776;SDS011;16677;52.224;7.484;2022-11-24T08:56:13;14.88;;;5.95;;
29776;SDS011;16677;52.224;7.484;2022-11-24T08:58:40;18.17;;;6.87;;
29776;SDS011;16677;52.224;7.484;2022-11-24T09:01:09;14.43;;;7.47;;
29776;SDS011;16677;52.224;7.484;2022-11-24T09:03:40;17.17;;;7.90;;
29776;SDS011;16677;52.224;7.484;2022-11-24T09:06:16;21.93;;;7.77;;
29776;SDS011;16677;52.224;7.484;2022-11-24T09:08:44;10.70;;;4.93;;
29776;SDS011;16677;52.224;7.484;2022-11-24T09:11:12;14.37;;;5.50;;
29776;SDS011;16677;52.224;7.484;2022-11-24T09:13:42;12.27;;;4.67;;
29776;SDS011;16677;52.224;7.484;2022-11-24T09:16:10;12.90;;;4.30;;
29776;SDS011;16677;52.224;7.484;2022-11-24T09:18:39;12.67;;;5.20;;
29776;SDS011;16677;52.224;7.484;2022-11-24T09:21:10;8.00;;;5.03;;
29776;SDS011;16677;52.224;7.484;2022-11-24T09:23:44;12.20;;;5.17;;
29776;SDS011;16677;52.224;7.484;2022-11-24T09:28:40;15.30;;;5.10;;
29776;SDS011;16677;52.224;7.484;2022-11-24T09:31:09;11.07;;;5.30;;
29776;SDS011;16677;52.224;7.484;2022-11-24T09:33:38;15.47;;;5.37;;
29776;SDS011;16677;52.224;7.484;2022-11-24T09:36:06;12.80;;;5.17;;
29776;SDS011;16677;52.224;7.484;2022-11-24T09:38:33;13.57;;;4.77;;
29776;SDS011;16677;52.224;7.484;2022-11-24T09:41:45;10.67;;;5.90;;
29776;SDS011;16677;52.224;7.484;2022-11-24T09:44:13;11.93;;;5.30;;
29776;SDS011;16677;52.224;7.484;2022-11-24T09:55:50;12.53;;;6.43;;
29776;SDS011;16677;52.224;7.484;2022-11-24T09:58:34;9.77;;;6.33;;
29776;SDS011;16677;52.224;7.484;2022-11-24T10:01:17;13.27;;;5.87;;
29776;SDS011;16677;52.224;7.484;2022-11-24T10:03:48;8.10;;;5.43;;
29776;SDS011;16677;52.224;7.484;2022-11-24T10:11:37;9.37;;;5.60;;
29776;SDS011;16677;52.224;7.484;2022-11-24T10:17:00;11.13;;;5.47;;
29776;SDS011;16677;52.224;7.484;2022-11-24T10:27:55;8.83;;;6.70;;
29776;SDS011;16677;52.224;7.484;2022-11-24T10:30:25;10.23;;;6.20;;
29776;SDS011;16677;52.224;7.484;2022-11-24T10:35:33;9.80;;;7.23;;
29776;SDS011;16677;52.224;7.484;2022-11-24T10:40:47;10.27;;;7.80;;
29776;SDS011;16677;52.224;7.484;2022-11-24T10:43:24;10.47;;;7.77;;
29776;SDS011;16677;52.224;7.484;2022-11-24T10:46:07;9.57;;;7.47;;
29776;SDS011;16677;52.224;7.484;2022-11-24T10:48:40;11.60;;;7.80;;
29776;SDS011;16677;52.224;7.484;2022-11-24T10:51:56;12.30;;;8.03;;
29776;SDS011;16677;52.224;7.484;2022-11-24T10:56:49;10.97;;;8.63;;
29776;SDS011;16677;52.224;7.484;2022-11-24T11:01:51;13.20;;;8.40;;
29776;SDS011;16677;52.224;7.484;2022-11-24T11:04:19;13.97;;;8.60;;
29776;SDS011;16677;52.224;7.484;2022-11-24T11:06:50;15.70;;;8.50;;
29776;SDS011;16677;52.224;7.484;2022-11-24T11:09:19;11.17;;;8.03;;
29776;SDS011;16677;52.224;7.484;2022-11-24T11:11:47;13.57;;;7.70;;
29776;SDS011;16677;52.224;7.484;2022-11-24T11:14:28;12.67;;;8.30;;
29776;SDS011;16677;52.224;7.484;2022-11-24T11:16:56;16.83;;;8.60;;
29776;SDS011;16677;52.224;7.484;2022-11-24T11:28:13;16.17;;;7.90;;
29776;SDS011;16677;52.224;7.484;2022-11-24T11:30:54;15.27;;;7.30;;
29776;SDS011;16677;52.224;7.484;2022-11-24T11:33:46;12.70;;;7.23;;
29776;SDS011;16677;52.224;7.484;2022-11-24T11:36:33;18.13;;;7.83;;
29776;SDS011;16677;52.224;7.484;2022-11-24T11:39:03;11.77;;;7.30;;
29776;SDS011;16677;52.224;7.484;2022-11-24T13:33:46;11.37;;;4.27;;
29776;SDS011;16677;52.224;7.484;2022-11-24T13:49:37;11.67;;;3.93;;
29776;SDS011;16677;52.224;7.484;2022-11-24T13:57:47;12.77;;;5.37;;
29776;SDS011;16677;52.224;7.484;2022-11-24T14:05:50;11.57;;;4.80;;
29776;SDS011;16677;52.224;7.484;2022-11-24T14:08:23;28.87;;;12.80;;
29776;SDS011;16677;52.224;7.484;2022-11-24T14:13:48;48.67;;;36.50;;
29776;SDS011;16677;52.224;7.484;2022-11-24T14:16:25;13.63;;;6.37;;
29776;SDS011;16677;52.224;7.484;2022-11-24T14:19:00;10.70;;;4.87;;
29776;SDS011;16677;52.224;7.484;2022-11-24T14:21:58;10.33;;;4.27;;
29776;SDS011;16677;52.224;7.484;2022-11-24T14:24:28;11.57;;;4.90;;
29776;SDS011;16677;52.224;7.484;2022-11-24T14:27:10;13.47;;;6.43;;
29776;SDS011;16677;52.224;7.484;2022-11-24T14:29:55;13.07;;;4.77;;
29776;SDS011;16677;52.224;7.484;2022-11-24T14:32:24;11.70;;;4.27;;
29776;SDS011;16677;52.224;7.484;2022-11-24T14:34:51;11.40;;;4.30;;
29776;SDS011;16677;52.224;7.484;2022-11-24T14:37:19;15.17;;;4.97;;
29776;SDS011;16677;52.224;7.484;2022-11-24T14:39:47;16.57;;;6.33;;
29776;SDS011;16677;52.224;7.484;2022-11-24T14:50:08;14.23;;;7.23;;
29776;SDS011;16677;52.224;7.484;2022-11-24T14:52:53;21.60;;;14.13;;
29776;SDS011;16677;52.224;7.484;2022-11-24T14:55:31;23.57;;;15.13;;
29776;SDS011;16677;52.224;7.484;2022-11-24T14:58:18;20.17;;;10.27;;
29776;SDS011;16677;52.224;7.484;2022-11-24T15:01:06;14.73;;;7.30;;
29776;SDS011;16677;52.224;7.484;2022-11-24T15:04:17;11.67;;;4.77;;
29776;SDS011;16677;52.224;7.484;2022-11-24T15:07:15;10.67;;;4.07;;
29776;SDS011;16677;52.224;7.484;2022-11-24T15:09:53;14.67;;;4.93;;
29776;SDS011;16677;52.224;7.484;2022-11-24T15:12:28;21.57;;;10.23;;
29776;SDS011;16677;52.224;7.484;2022-11-24T15:17:46;14.10;;;8.00;;
29776;SDS011;16677;52.224;7.484;2022-11-24T15:20:26;15.30;;;6.80;;
29776;SDS011;16677;52.224;7.484;2022-11-24T15:25:49;14.60;;;6.80;;
29776;SDS011;16677;52.224;7.484;2022-11-24T15:28:17;24.60;;;11.77;;
29776;SDS011;16677;52.224;7.484;2022-11-24T15:30:47;12.90;;;5.80;;
29776;SDS011;16677;52.224;7.484;2022-11-24T15:33:15;14.87;;;6.63;;
29776;SDS011;16677;52.224;7.484;2022-11-24T15:35:44;18.83;;;6.63;;
29776;SDS011;16677;52.224;7.484;2022-11-24T15:38:12;22.47;;;8.57;;
29776;SDS011;16677;52.224;7.484;2022-11-24T15:40:39;21.10;;;8.03;;
29776;SDS011;16677;52.224;7.484;2022-11-24T15:45:56;18.00;;;6.73;;
29776;SDS011;16677;52.224;7.484;2022-11-24T15:48:24;16.90;;;6.33;;
29776;SDS011;16677;52.224;7.484;2022-11-24T15:50:52;16.77;;;7.07;;
29776;SDS011;16677;52.224;7.484;2022-11-24T15:53:36;22.67;;;6.37;;
29776;SDS011;16677;52.224;7.484;2022-11-24T15:56:06;17.47;;;5.63;;
29776;SDS011;16677;52.224;7.484;2022-11-24T15:58:39;21.80;;;6.40;;
29776;SDS011;16677;52.224;7.484;2022-11-24T16:01:06;16.30;;;6.20;;
29776;SDS011;16677;52.224;7.484;2022-11-24T16:03:33;16.87;;;7.43;;
29776;SDS011;16677;52.224;7.484;2022-11-24T16:06:16;21.80;;;8.47;;
29776;SDS011;16677;52.224;7.484;2022-11-24T16:08:50;17.13;;;6.77;;
29776;SDS011;16677;52.224;7.484;2022-11-24T16:11:21;21.83;;;9.93;;
29776;SDS011;16677;52.224;7.484;2022-11-24T16:13:48;23.87;;;8.53;;
29776;SDS011;16677;52.224;7.484;2022-11-24T16:16:22;19.23;;;8.67;;
29776;SDS011;16677;52.224;7.484;2022-11-24T16:19:07;20.70;;;9.83;;
29776;SDS011;16677;52.224;7.484;2022-11-24T16:21:48;24.07;;;12.10;;
29776;SDS011;16677;52.224;7.484;2022-11-24T16:24:15;20.70;;;12.30;;
29776;SDS011;16677;52.224;7.484;2022-11-24T16:27:11;24.37;;;11.23;;
29776;SDS011;16677;52.224;7.484;2022-11-24T16:29:47;23.47;;;11.10;;
29776;SDS011;16677;52.224;7.484;2022-11-24T16:32:14;21.10;;;10.93;;
29776;SDS011;16677;52.224;7.484;2022-11-24T16:34:41;22.60;;;12.33;;
29776;SDS011;16677;52.224;7.484;2022-11-24T16:37:09;21.13;;;9.80;;
29776;SDS011;16677;52.224;7.484;2022-11-24T16:39:36;27.63;;;14.17;;
29776;SDS011;16677;52.224;7.484;2022-11-24T16:42:03;23.87;;;13.13;;
29776;SDS011;16677;52.224;7.484;2022-11-24T16:44:30;22.47;;;12.57;;
29776;SDS011;16677;52.224;7.484;2022-11-24T16:46:57;111.10;;;56.67;;
29776;SDS011;16677;52.224;7.484;2022-11-24T16:49:24;134.33;;;84.37;;
29776;SDS011;16677;52.224;7.484;2022-11-24T16:51:51;41.53;;;25.33;;
29776;SDS011;16677;52.224;7.484;2022-11-24T16:54:18;25.20;;;11.73;;
29776;SDS011;16677;52.224;7.484;2022-11-24T16:56:45;22.70;;;9.90;;
29776;SDS011;16677;52.224;7.484;2022-11-24T16:59:12;24.87;;;10.30;;
29776;SDS011;16677;52.224;7.484;2022-11-24T17:01:39;23.00;;;9.03;;
29776;SDS011;16677;52.224;7.484;2022-11-24T17:04:06;20.63;;;13.57;;
29776;SDS011;16677;52.224;7.484;2022-11-24T17:06:38;24.27;;;13.30;;
29776;SDS011;16677;52.224;7.484;2022-11-24T20:24:37;24.27;;;10.30;;
29776;SDS011;16677;52.224;7.484;2022-11-24T20:27:45;23.97;;;11.50;;
29776;SDS011;16677;52.224;7.484;2022-11-24T20:32:57;27.83;;;9.83;;
29776;SDS011;16677;52.224;7.484;2022-11-24T20:35:28;25.07;;;10.27;;
29776;SDS011;16677;52.224;7.484;2022-11-24T20:38:10;29.33;;;11.30;;
29776;SDS011;16677;52.224;7.484;2022-11-24T20:40:37;26.60;;;10.97;;
29776;SDS011;16677;52.224;7.484;2022-11-24T20:43:14;26.33;;;10.90;;
29776;SDS011;16677;52.224;7.484;2022-11-24T20:46:19;26.27;;;11.03;;
29776;SDS011;16677;52.224;7.484;2022-11-24T20:48:54;23.90;;;11.70;;
29776;SDS011;16677;52.224;7.484;2022-11-24T20:51:24;32.43;;;12.57;;
29776;SDS011;16677;52.224;7.484;2022-11-24T20:54:06;21.73;;;11.67;;
